sensor_id;sensor_type;location;lat;lon;timestamp;temperature;humidity
20288;DHT22;10303;51.960;8.372;2023-06-10T00:02:11;23.30;75.20
20288;DHT22;10303;51.960;8.372;2023-06-10T00:04:38;23.30;75.10
20288;DHT22;10303;51.960;8.372;2023-06-10T00:07:05;23.20;75.00
20288;DHT22;10303;51.960;8.372;2023-06-10T00:09:35;23.20;74.90
20288;DHT22;10303;51.960;8.372;2023-06-10T00:12:06;23.20;75.00
20288;DHT22;10303;51.960;8.372;2023-06-10T00:14:34;23.20;75.00
20288;DHT22;10303;51.960;8.372;2023-06-10T00:17:02;23.10;74.70
20288;DHT22;10303;51.960;8.372;2023-06-10T00:19:29;23.10;74.80
20288;DHT22;10303;51.960;8.372;2023-06-10T00:21:57;23.10;74.60
20288;DHT22;10303;51.960;8.372;2023-06-10T00:24:24;23.10;74.60
20288;DHT22;10303;51.960;8.372;2023-06-10T00:26:50;23.00;74.40
20288;DHT22;10303;51.960;8.372;2023-06-10T00:29:17;23.10;74.50
20288;DHT22;10303;51.960;8.372;2023-06-10T00:31:45;23.00;74.10
20288;DHT22;10303;51.960;8.372;2023-06-10T00:34:12;23.00;74.10
20288;DHT22;10303;51.960;8.372;2023-06-10T00:36:39;23.00;74.00
20288;DHT22;10303;51.960;8.372;2023-06-10T00:39:05;23.00;74.00
20288;DHT22;10303;51.960;8.372;2023-06-10T00:41:31;23.00;73.90
20288;DHT22;10303;51.960;8.372;2023-06-10T00:43:59;22.90;74.60
20288;DHT22;10303;51.960;8.372;2023-06-10T00:46:26;22.90;73.80
20288;DHT22;10303;51.960;8.372;2023-06-10T00:48:55;22.90;73.80
20288;DHT22;10303;51.960;8.372;2023-06-10T00:51:22;22.90;73.70
20288;DHT22;10303;51.960;8.372;2023-06-10T00:53:48;22.90;73.70
20288;DHT22;10303;51.960;8.372;2023-06-10T00:56:15;22.90;73.60
20288;DHT22;10303;51.960;8.372;2023-06-10T00:58:41;22.90;73.50
20288;DHT22;10303;51.960;8.372;2023-06-10T01:01:07;22.80;73.30
20288;DHT22;10303;51.960;8.372;2023-06-10T01:03:37;22.80;73.20
20288;DHT22;10303;51.960;8.372;2023-06-10T01:12:14;22.70;72.90
20288;DHT22;10303;51.960;8.372;2023-06-10T01:14:47;22.70;72.60
20288;DHT22;10303;51.960;8.372;2023-06-10T01:17:14;22.70;72.60
20288;DHT22;10303;51.960;8.372;2023-06-10T01:19:42;22.70;72.60
20288;DHT22;10303;51.960;8.372;2023-06-10T01:22:09;22.70;72.60
20288;DHT22;10303;51.960;8.372;2023-06-10T01:24:37;22.60;72.50
20288;DHT22;10303;51.960;8.372;2023-06-10T01:27:11;22.60;72.40
20288;DHT22;10303;51.960;8.372;2023-06-10T01:29:51;22.50;72.20
20288;DHT22;10303;51.960;8.372;2023-06-10T01:32:33;22.50;72.20
20288;DHT22;10303;51.960;8.372;2023-06-10T01:35:03;22.50;72.10
20288;DHT22;10303;51.960;8.372;2023-06-10T01:37:31;22.50;72.00
20288;DHT22;10303;51.960;8.372;2023-06-10T01:40:00;22.40;71.90
20288;DHT22;10303;51.960;8.372;2023-06-10T01:42:32;22.40;71.80
20288;DHT22;10303;51.960;8.372;2023-06-10T01:44:58;22.40;71.90
20288;DHT22;10303;51.960;8.372;2023-06-10T01:47:25;22.40;71.70
20288;DHT22;10303;51.960;8.372;2023-06-10T01:49:52;22.30;71.60
20288;DHT22;10303;51.960;8.372;2023-06-10T01:52:18;22.30;72.30
20288;DHT22;10303;51.960;8.372;2023-06-10T01:54:44;22.20;71.50
20288;DHT22;10303;51.960;8.372;2023-06-10T01:57:11;22.20;71.40
20288;DHT22;10303;51.960;8.372;2023-06-10T01:59:37;22.20;71.40
20288;DHT22;10303;51.960;8.372;2023-06-10T02:02:04;22.20;71.40
20288;DHT22;10303;51.960;8.372;2023-06-10T02:04:31;22.10;71.40
20288;DHT22;10303;51.960;8.372;2023-06-10T02:06:59;22.10;71.40
20288;DHT22;10303;51.960;8.372;2023-06-10T02:09:30;22.00;71.40
20288;DHT22;10303;51.960;8.372;2023-06-10T02:11:57;22.00;71.50
20288;DHT22;10303;51.960;8.372;2023-06-10T02:14:23;21.90;72.10
20288;DHT22;10303;51.960;8.372;2023-06-10T02:16:50;21.90;71.30
20288;DHT22;10303;51.960;8.372;2023-06-10T02:19:16;21.80;72.00
20288;DHT22;10303;51.960;8.372;2023-06-10T02:21:42;21.80;71.30
20288;DHT22;10303;51.960;8.372;2023-06-10T02:24:09;21.80;71.40
20288;DHT22;10303;51.960;8.372;2023-06-10T02:26:35;21.70;71.40
20288;DHT22;10303;51.960;8.372;2023-06-10T02:29:01;21.70;71.50
20288;DHT22;10303;51.960;8.372;2023-06-10T02:31:28;21.60;71.50
20288;DHT22;10303;51.960;8.372;2023-06-10T02:33:54;21.60;71.50
20288;DHT22;10303;51.960;8.372;2023-06-10T02:36:21;21.50;71.60
20288;DHT22;10303;51.960;8.372;2023-06-10T02:38:50;21.50;71.50
20288;DHT22;10303;51.960;8.372;2023-06-10T02:41:17;21.50;72.50
20288;DHT22;10303;51.960;8.372;2023-06-10T02:43:44;21.40;71.70
20288;DHT22;10303;51.960;8.372;2023-06-10T02:46:11;21.40;71.70
20288;DHT22;10303;51.960;8.372;2023-06-10T02:48:43;21.30;71.70
20288;DHT22;10303;51.960;8.372;2023-06-10T02:51:13;21.30;71.90
20288;DHT22;10303;51.960;8.372;2023-06-10T02:53:43;21.30;71.90
20288;DHT22;10303;51.960;8.372;2023-06-10T02:56:11;21.30;71.90
20288;DHT22;10303;51.960;8.372;2023-06-10T02:58:38;21.20;71.70
20288;DHT22;10303;51.960;8.372;2023-06-10T03:01:06;21.20;71.70
20288;DHT22;10303;51.960;8.372;2023-06-10T03:03:41;21.10;72.40
20288;DHT22;10303;51.960;8.372;2023-06-10T03:06:10;21.10;72.40
20288;DHT22;10303;51.960;8.372;2023-06-10T03:08:41;21.00;71.60
20288;DHT22;10303;51.960;8.372;2023-06-10T03:11:12;21.00;71.60
20288;DHT22;10303;51.960;8.372;2023-06-10T03:13:39;20.90;71.70
20288;DHT22;10303;51.960;8.372;2023-06-10T03:16:07;20.80;71.80
20288;DHT22;10303;51.960;8.372;2023-06-10T03:18:36;20.80;71.90
20288;DHT22;10303;51.960;8.372;2023-06-10T03:21:02;20.70;71.90
20288;DHT22;10303;51.960;8.372;2023-06-10T03:23:29;20.70;72.00
20288;DHT22;10303;51.960;8.372;2023-06-10T03:25:55;20.60;72.10
20288;DHT22;10303;51.960;8.372;2023-06-10T03:28:22;20.50;72.80
20288;DHT22;10303;51.960;8.372;2023-06-10T03:30:48;20.40;72.20
20288;DHT22;10303;51.960;8.372;2023-06-10T03:33:14;20.40;72.40
20288;DHT22;10303;51.960;8.372;2023-06-10T03:35:41;20.40;72.60
20288;DHT22;10303;51.960;8.372;2023-06-10T03:38:07;20.30;72.60
20288;DHT22;10303;51.960;8.372;2023-06-10T03:40:33;20.20;72.80
20288;DHT22;10303;51.960;8.372;2023-06-10T03:43:00;20.20;72.90
20288;DHT22;10303;51.960;8.372;2023-06-10T03:45:27;20.20;73.20
20288;DHT22;10303;51.960;8.372;2023-06-10T03:47:58;20.10;73.40
20288;DHT22;10303;51.960;8.372;2023-06-10T03:50:29;20.10;73.50
20288;DHT22;10303;51.960;8.372;2023-06-10T03:52:55;20.00;73.60
20288;DHT22;10303;51.960;8.372;2023-06-10T03:55:24;20.00;74.00
20288;DHT22;10303;51.960;8.372;2023-06-10T03:57:50;19.90;74.10
20288;DHT22;10303;51.960;8.372;2023-06-10T04:00:17;19.90;74.20
20288;DHT22;10303;51.960;8.372;2023-06-10T04:02:47;19.80;74.70
20288;DHT22;10303;51.960;8.372;2023-06-10T04:05:24;19.80;74.60
20288;DHT22;10303;51.960;8.372;2023-06-10T04:07:51;19.80;74.80
20288;DHT22;10303;51.960;8.372;2023-06-10T04:10:17;19.70;75.00
20288;DHT22;10303;51.960;8.372;2023-06-10T04:12:44;19.70;75.20
20288;DHT22;10303;51.960;8.372;2023-06-10T04:15:10;19.60;75.50
20288;DHT22;10303;51.960;8.372;2023-06-10T04:17:37;19.60;75.70
20288;DHT22;10303;51.960;8.372;2023-06-10T04:20:04;19.70;76.80
20288;DHT22;10303;51.960;8.372;2023-06-10T04:22:33;19.60;76.00
20288;DHT22;10303;51.960;8.372;2023-06-10T04:24:59;19.60;76.30
20288;DHT22;10303;51.960;8.372;2023-06-10T04:27:25;19.60;76.50
20288;DHT22;10303;51.960;8.372;2023-06-10T04:29:52;19.60;76.60
20288;DHT22;10303;51.960;8.372;2023-06-10T04:32:18;19.60;76.70
20288;DHT22;10303;51.960;8.372;2023-06-10T04:34:44;19.60;76.90
20288;DHT22;10303;51.960;8.372;2023-06-10T04:37:10;19.60;77.10
20288;DHT22;10303;51.960;8.372;2023-06-10T04:39:36;19.60;77.20
20288;DHT22;10303;51.960;8.372;2023-06-10T04:42:02;19.60;77.40
20288;DHT22;10303;51.960;8.372;2023-06-10T04:44:29;19.60;77.50
20288;DHT22;10303;51.960;8.372;2023-06-10T04:46:56;19.70;77.80
20288;DHT22;10303;51.960;8.372;2023-06-10T04:49:22;19.80;78.00
20288;DHT22;10303;51.960;8.372;2023-06-10T04:51:48;19.70;78.10
20288;DHT22;10303;51.960;8.372;2023-06-10T04:54:15;19.70;78.20
20288;DHT22;10303;51.960;8.372;2023-06-10T04:56:41;19.80;78.30
20288;DHT22;10303;51.960;8.372;2023-06-10T04:59:07;19.80;79.20
20288;DHT22;10303;51.960;8.372;2023-06-10T05:01:33;19.90;78.50
20288;DHT22;10303;51.960;8.372;2023-06-10T05:03:59;19.90;78.70
20288;DHT22;10303;51.960;8.372;2023-06-10T05:06:25;19.90;78.60
20288;DHT22;10303;51.960;8.372;2023-06-10T05:08:50;19.90;78.90
20288;DHT22;10303;51.960;8.372;2023-06-10T05:11:16;20.00;79.00
20288;DHT22;10303;51.960;8.372;2023-06-10T05:13:42;20.00;79.00
20288;DHT22;10303;51.960;8.372;2023-06-10T05:16:09;20.00;79.00
20288;DHT22;10303;51.960;8.372;2023-06-10T05:18:35;20.10;79.20
20288;DHT22;10303;51.960;8.372;2023-06-10T05:21:01;20.10;79.30
20288;DHT22;10303;51.960;8.372;2023-06-10T05:23:28;20.10;80.80
20288;DHT22;10303;51.960;8.372;2023-06-10T05:25:54;20.20;79.80
20288;DHT22;10303;51.960;8.372;2023-06-10T05:28:20;20.20;79.80
20288;DHT22;10303;51.960;8.372;2023-06-10T05:30:46;20.20;80.10
20288;DHT22;10303;51.960;8.372;2023-06-10T05:33:12;20.30;79.60
20288;DHT22;10303;51.960;8.372;2023-06-10T05:35:38;20.30;79.50
20288;DHT22;10303;51.960;8.372;2023-06-10T05:38:04;20.40;79.40
20288;DHT22;10303;51.960;8.372;2023-06-10T05:40:30;20.40;79.30
20288;DHT22;10303;51.960;8.372;2023-06-10T05:42:56;20.50;79.40
20288;DHT22;10303;51.960;8.372;2023-06-10T05:45:22;20.50;79.30
20288;DHT22;10303;51.960;8.372;2023-06-10T05:47:48;20.60;79.40
20288;DHT22;10303;51.960;8.372;2023-06-10T05:50:14;20.60;79.40
20288;DHT22;10303;51.960;8.372;2023-06-10T05:52:40;20.70;79.50
20288;DHT22;10303;51.960;8.372;2023-06-10T05:55:07;20.70;79.50
20288;DHT22;10303;51.960;8.372;2023-06-10T05:57:33;20.80;79.50
20288;DHT22;10303;51.960;8.372;2023-06-10T05:59:59;20.90;79.50
20288;DHT22;10303;51.960;8.372;2023-06-10T06:02:25;20.90;79.40
20288;DHT22;10303;51.960;8.372;2023-06-10T06:04:51;21.00;79.30
20288;DHT22;10303;51.960;8.372;2023-06-10T06:07:17;21.00;79.20
20288;DHT22;10303;51.960;8.372;2023-06-10T06:09:47;21.10;79.10
20288;DHT22;10303;51.960;8.372;2023-06-10T06:12:13;21.20;79.00
20288;DHT22;10303;51.960;8.372;2023-06-10T06:14:39;21.20;78.90
20288;DHT22;10303;51.960;8.372;2023-06-10T06:17:06;21.30;78.90
20288;DHT22;10303;51.960;8.372;2023-06-10T06:19:33;21.30;78.90
20288;DHT22;10303;51.960;8.372;2023-06-10T06:21:59;21.40;79.40
20288;DHT22;10303;51.960;8.372;2023-06-10T06:24:25;21.40;78.50
20288;DHT22;10303;51.960;8.372;2023-06-10T06:26:51;21.60;78.50
20288;DHT22;10303;51.960;8.372;2023-06-10T06:29:18;21.60;78.20
20288;DHT22;10303;51.960;8.372;2023-06-10T06:31:44;21.70;78.10
20288;DHT22;10303;51.960;8.372;2023-06-10T06:34:10;21.80;78.20
20288;DHT22;10303;51.960;8.372;2023-06-10T06:36:36;21.90;78.00
20288;DHT22;10303;51.960;8.372;2023-06-10T06:39:02;21.90;77.70
20288;DHT22;10303;51.960;8.372;2023-06-10T06:41:28;22.00;77.60
20288;DHT22;10303;51.960;8.372;2023-06-10T06:43:55;22.10;77.60
20288;DHT22;10303;51.960;8.372;2023-06-10T06:46:29;22.20;77.50
20288;DHT22;10303;51.960;8.372;2023-06-10T06:48:55;22.30;78.00
20288;DHT22;10303;51.960;8.372;2023-06-10T06:51:21;22.30;77.00
20288;DHT22;10303;51.960;8.372;2023-06-10T06:53:47;22.40;76.60
20288;DHT22;10303;51.960;8.372;2023-06-10T06:56:15;22.50;76.40
20288;DHT22;10303;51.960;8.372;2023-06-10T06:58:41;22.60;76.00
20288;DHT22;10303;51.960;8.372;2023-06-10T07:01:07;22.70;75.80
20288;DHT22;10303;51.960;8.372;2023-06-10T07:03:33;22.80;75.80
20288;DHT22;10303;51.960;8.372;2023-06-10T07:05:59;22.90;75.90
20288;DHT22;10303;51.960;8.372;2023-06-10T07:08:25;23.00;75.70
20288;DHT22;10303;51.960;8.372;2023-06-10T07:10:51;23.10;74.70
20288;DHT22;10303;51.960;8.372;2023-06-10T07:13:17;23.20;74.10
20288;DHT22;10303;51.960;8.372;2023-06-10T07:15:43;23.30;74.10
20288;DHT22;10303;51.960;8.372;2023-06-10T07:18:09;23.30;73.80
20288;DHT22;10303;51.960;8.372;2023-06-10T07:20:35;23.40;73.40
20288;DHT22;10303;51.960;8.372;2023-06-10T07:23:01;23.50;73.80
20288;DHT22;10303;51.960;8.372;2023-06-10T07:25:27;23.60;72.90
20288;DHT22;10303;51.960;8.372;2023-06-10T07:27:53;23.70;72.70
20288;DHT22;10303;51.960;8.372;2023-06-10T07:30:19;23.80;72.50
20288;DHT22;10303;51.960;8.372;2023-06-10T07:32:45;24.00;71.90
20288;DHT22;10303;51.960;8.372;2023-06-10T07:35:12;24.00;72.30
20288;DHT22;10303;51.960;8.372;2023-06-10T07:37:38;24.10;72.50
20288;DHT22;10303;51.960;8.372;2023-06-10T07:40:04;24.30;73.10
20288;DHT22;10303;51.960;8.372;2023-06-10T07:42:35;24.40;72.70
20288;DHT22;10303;51.960;8.372;2023-06-10T07:45:05;24.50;72.20
20288;DHT22;10303;51.960;8.372;2023-06-10T07:47:33;24.70;72.50
20288;DHT22;10303;51.960;8.372;2023-06-10T07:50:00;24.80;72.30
20288;DHT22;10303;51.960;8.372;2023-06-10T07:52:26;25.00;72.80
20288;DHT22;10303;51.960;8.372;2023-06-10T07:54:54;25.10;72.70
20288;DHT22;10303;51.960;8.372;2023-06-10T07:57:20;25.30;72.40
20288;DHT22;10303;51.960;8.372;2023-06-10T07:59:46;25.40;72.20
20288;DHT22;10303;51.960;8.372;2023-06-10T08:02:11;25.60;72.50
20288;DHT22;10303;51.960;8.372;2023-06-10T08:04:37;25.80;72.50
20288;DHT22;10303;51.960;8.372;2023-06-10T08:07:03;25.90;73.10
20288;DHT22;10303;51.960;8.372;2023-06-10T08:09:30;26.10;72.80
20288;DHT22;10303;51.960;8.372;2023-06-10T08:11:55;26.20;72.70
20288;DHT22;10303;51.960;8.372;2023-06-10T08:14:22;26.40;74.10
20288;DHT22;10303;51.960;8.372;2023-06-10T08:16:47;26.60;72.90
20288;DHT22;10303;51.960;8.372;2023-06-10T08:19:13;26.80;72.60
20288;DHT22;10303;51.960;8.372;2023-06-10T08:21:39;27.00;73.00
20288;DHT22;10303;51.960;8.372;2023-06-10T08:24:06;27.10;72.70
20288;DHT22;10303;51.960;8.372;2023-06-10T08:26:32;27.40;72.10
20288;DHT22;10303;51.960;8.372;2023-06-10T08:28:58;27.60;71.60
20288;DHT22;10303;51.960;8.372;2023-06-10T08:31:24;27.70;71.80
20288;DHT22;10303;51.960;8.372;2023-06-10T08:33:50;27.90;71.90
20288;DHT22;10303;51.960;8.372;2023-06-10T08:36:16;28.10;70.70
20288;DHT22;10303;51.960;8.372;2023-06-10T08:38:42;28.30;70.40
20288;DHT22;10303;51.960;8.372;2023-06-10T08:41:09;28.40;67.80
20288;DHT22;10303;51.960;8.372;2023-06-10T08:43:46;28.60;67.50
20288;DHT22;10303;51.960;8.372;2023-06-10T08:46:19;28.80;68.00
20288;DHT22;10303;51.960;8.372;2023-06-10T08:48:48;28.90;68.20
20288;DHT22;10303;51.960;8.372;2023-06-10T08:51:23;29.00;69.20
20288;DHT22;10303;51.960;8.372;2023-06-10T08:54:01;29.20;68.80
20288;DHT22;10303;51.960;8.372;2023-06-10T08:56:29;29.40;68.20
20288;DHT22;10303;51.960;8.372;2023-06-10T08:58:57;29.50;67.60
20288;DHT22;10303;51.960;8.372;2023-06-10T09:01:26;29.70;66.60
20288;DHT22;10303;51.960;8.372;2023-06-10T09:03:52;29.80;65.90
20288;DHT22;10303;51.960;8.372;2023-06-10T09:06:18;30.00;67.30
20288;DHT22;10303;51.960;8.372;2023-06-10T09:08:44;30.10;66.70
20288;DHT22;10303;51.960;8.372;2023-06-10T09:11:10;30.30;66.30
20288;DHT22;10303;51.960;8.372;2023-06-10T09:13:36;30.40;66.70
20288;DHT22;10303;51.960;8.372;2023-06-10T09:16:02;30.60;66.80
20288;DHT22;10303;51.960;8.372;2023-06-10T09:18:31;30.70;66.80
20288;DHT22;10303;51.960;8.372;2023-06-10T09:20:57;30.90;66.20
20288;DHT22;10303;51.960;8.372;2023-06-10T09:23:22;31.10;65.80
20288;DHT22;10303;51.960;8.372;2023-06-10T09:25:56;31.20;65.20
20288;DHT22;10303;51.960;8.372;2023-06-10T09:28:25;31.40;65.30
20288;DHT22;10303;51.960;8.372;2023-06-10T09:31:05;31.50;64.50
20288;DHT22;10303;51.960;8.372;2023-06-10T09:33:32;31.80;64.00
20288;DHT22;10303;51.960;8.372;2023-06-10T09:36:01;31.90;63.00
20288;DHT22;10303;51.960;8.372;2023-06-10T09:38:32;32.10;62.00
20288;DHT22;10303;51.960;8.372;2023-06-10T09:41:00;32.20;62.50
20288;DHT22;10303;51.960;8.372;2023-06-10T09:43:42;32.30;60.60
20288;DHT22;10303;51.960;8.372;2023-06-10T09:46:16;32.50;61.10
20288;DHT22;10303;51.960;8.372;2023-06-10T09:48:44;32.60;61.60
20288;DHT22;10303;51.960;8.372;2023-06-10T09:51:15;32.70;60.50
20288;DHT22;10303;51.960;8.372;2023-06-10T09:53:48;32.80;60.40
20288;DHT22;10303;51.960;8.372;2023-06-10T09:56:16;33.00;60.70
20288;DHT22;10303;51.960;8.372;2023-06-10T09:58:42;33.00;59.10
20288;DHT22;10303;51.960;8.372;2023-06-10T10:01:12;33.20;59.30
20288;DHT22;10303;51.960;8.372;2023-06-10T10:03:47;33.30;59.10
20288;DHT22;10303;51.960;8.372;2023-06-10T10:06:15;33.40;58.10
20288;DHT22;10303;51.960;8.372;2023-06-10T10:08:43;33.50;57.80
20288;DHT22;10303;51.960;8.372;2023-06-10T10:11:10;33.60;57.90
20288;DHT22;10303;51.960;8.372;2023-06-10T10:13:37;33.70;55.90
20288;DHT22;10303;51.960;8.372;2023-06-10T10:16:09;33.80;56.00
20288;DHT22;10303;51.960;8.372;2023-06-10T10:18:40;33.90;56.00
20288;DHT22;10303;51.960;8.372;2023-06-10T10:21:13;34.00;55.00
20288;DHT22;10303;51.960;8.372;2023-06-10T10:26:34;34.30;55.10
20288;DHT22;10303;51.960;8.372;2023-06-10T10:29:07;34.50;56.00
20288;DHT22;10303;51.960;8.372;2023-06-10T10:31:55;34.70;54.00
20288;DHT22;10303;51.960;8.372;2023-06-10T10:37:12;35.10;54.00
20288;DHT22;10303;51.960;8.372;2023-06-10T10:39:39;35.10;54.70
20288;DHT22;10303;51.960;8.372;2023-06-10T10:42:05;35.30;53.60
20288;DHT22;10303;51.960;8.372;2023-06-10T10:44:37;35.40;54.20
20288;DHT22;10303;51.960;8.372;2023-06-10T10:47:08;35.60;54.80
20288;DHT22;10303;51.960;8.372;2023-06-10T10:49:35;35.70;53.10
20288;DHT22;10303;51.960;8.372;2023-06-10T10:52:03;35.80;51.80
20288;DHT22;10303;51.960;8.372;2023-06-10T10:54:35;35.90;51.60
20288;DHT22;10303;51.960;8.372;2023-06-10T10:59:57;35.90;51.20
20288;DHT22;10303;51.960;8.372;2023-06-10T11:02:44;35.90;50.90
20288;DHT22;10303;51.960;8.372;2023-06-10T11:05:15;35.90;50.50
20288;DHT22;10303;51.960;8.372;2023-06-10T11:07:53;35.90;51.10
20288;DHT22;10303;51.960;8.372;2023-06-10T11:10:33;35.90;50.40
20288;DHT22;10303;51.960;8.372;2023-06-10T11:13:14;35.90;50.70
20288;DHT22;10303;51.960;8.372;2023-06-10T11:15:45;35.90;51.20
20288;DHT22;10303;51.960;8.372;2023-06-10T11:18:28;35.90;51.40
20288;DHT22;10303;51.960;8.372;2023-06-10T11:20:57;36.00;50.90
20288;DHT22;10303;51.960;8.372;2023-06-10T11:31:29;36.20;51.00
20288;DHT22;10303;51.960;8.372;2023-06-10T11:34:01;36.30;51.70
20288;DHT22;10303;51.960;8.372;2023-06-10T11:36:37;36.30;51.50
20288;DHT22;10303;51.960;8.372;2023-06-10T11:39:06;36.40;51.40
20288;DHT22;10303;51.960;8.372;2023-06-10T11:41:34;36.50;50.80
20288;DHT22;10303;51.960;8.372;2023-06-10T11:44:08;36.50;51.50
20288;DHT22;10303;51.960;8.372;2023-06-10T11:46:34;36.50;50.80
20288;DHT22;10303;51.960;8.372;2023-06-10T11:49:01;36.60;50.60
20288;DHT22;10303;51.960;8.372;2023-06-10T11:51:34;36.60;50.50
20288;DHT22;10303;51.960;8.372;2023-06-10T11:54:03;36.60;50.90
20288;DHT22;10303;51.960;8.372;2023-06-10T11:56:31;36.60;50.30
20288;DHT22;10303;51.960;8.372;2023-06-10T11:59:07;36.60;49.60
20288;DHT22;10303;51.960;8.372;2023-06-10T12:01:37;36.60;49.80
20288;DHT22;10303;51.960;8.372;2023-06-10T12:04:11;36.60;49.60
20288;DHT22;10303;51.960;8.372;2023-06-10T12:06:39;36.60;50.10
20288;DHT22;10303;51.960;8.372;2023-06-10T12:14:58;36.60;49.70
20288;DHT22;10303;51.960;8.372;2023-06-10T12:19:58;36.60;48.70
20288;DHT22;10303;51.960;8.372;2023-06-10T12:22:25;36.60;49.30
20288;DHT22;10303;51.960;8.372;2023-06-10T12:24:59;36.60;49.60
20288;DHT22;10303;51.960;8.372;2023-06-10T12:27:27;36.60;49.80
20288;DHT22;10303;51.960;8.372;2023-06-10T12:29:56;36.80;49.80
20288;DHT22;10303;51.960;8.372;2023-06-10T12:32:43;36.80;49.80
20288;DHT22;10303;51.960;8.372;2023-06-10T12:35:11;36.90;49.30
20288;DHT22;10303;51.960;8.372;2023-06-10T12:37:59;36.90;49.10
20288;DHT22;10303;51.960;8.372;2023-06-10T12:40:34;37.00;48.90
20288;DHT22;10303;51.960;8.372;2023-06-10T12:43:02;37.00;48.20
20288;DHT22;10303;51.960;8.372;2023-06-10T12:45:33;37.00;48.40
20288;DHT22;10303;51.960;8.372;2023-06-10T12:48:07;37.00;48.20
20288;DHT22;10303;51.960;8.372;2023-06-10T12:50:36;37.00;48.20
20288;DHT22;10303;51.960;8.372;2023-06-10T12:53:03;37.00;47.80
20288;DHT22;10303;51.960;8.372;2023-06-10T12:55:29;37.00;48.30
20288;DHT22;10303;51.960;8.372;2023-06-10T12:57:55;37.00;48.10
20288;DHT22;10303;51.960;8.372;2023-06-10T13:00:23;37.00;48.10
20288;DHT22;10303;51.960;8.372;2023-06-10T13:02:52;37.00;48.30
20288;DHT22;10303;51.960;8.372;2023-06-10T13:05:19;36.90;48.20
20288;DHT22;10303;51.960;8.372;2023-06-10T13:07:46;36.90;48.60
20288;DHT22;10303;51.960;8.372;2023-06-10T13:10:14;36.90;49.10
20288;DHT22;10303;51.960;8.372;2023-06-10T13:12:42;36.90;49.00
20288;DHT22;10303;51.960;8.372;2023-06-10T13:15:09;36.90;49.20
20288;DHT22;10303;51.960;8.372;2023-06-10T13:17:36;36.90;48.90
20288;DHT22;10303;51.960;8.372;2023-06-10T13:20:03;36.90;49.00
20288;DHT22;10303;51.960;8.372;2023-06-10T13:22:31;36.90;49.20
20288;DHT22;10303;51.960;8.372;2023-06-10T13:24:59;36.90;49.10
20288;DHT22;10303;51.960;8.372;2023-06-10T13:27:25;37.00;49.50
20288;DHT22;10303;51.960;8.372;2023-06-10T13:29:51;37.00;49.30
20288;DHT22;10303;51.960;8.372;2023-06-10T13:32:17;37.10;49.40
20288;DHT22;10303;51.960;8.372;2023-06-10T13:34:43;37.10;49.00
20288;DHT22;10303;51.960;8.372;2023-06-10T13:37:09;37.10;48.50
20288;DHT22;10303;51.960;8.372;2023-06-10T13:39:35;37.10;48.50
20288;DHT22;10303;51.960;8.372;2023-06-10T13:42:01;37.10;48.40
20288;DHT22;10303;51.960;8.372;2023-06-10T13:44:28;37.00;48.70
20288;DHT22;10303;51.960;8.372;2023-06-10T13:46:56;37.00;48.20
20288;DHT22;10303;51.960;8.372;2023-06-10T13:49:22;37.00;47.80
20288;DHT22;10303;51.960;8.372;2023-06-10T13:51:48;36.90;48.00
20288;DHT22;10303;51.960;8.372;2023-06-10T13:54:14;36.90;48.30
20288;DHT22;10303;51.960;8.372;2023-06-10T13:56:41;36.80;47.70
20288;DHT22;10303;51.960;8.372;2023-06-10T13:59:07;36.80;47.90
20288;DHT22;10303;51.960;8.372;2023-06-10T14:01:33;36.70;48.00
20288;DHT22;10303;51.960;8.372;2023-06-10T14:04:00;36.60;48.30
20288;DHT22;10303;51.960;8.372;2023-06-10T14:06:26;36.60;48.30
20288;DHT22;10303;51.960;8.372;2023-06-10T14:08:52;36.60;47.90
20288;DHT22;10303;51.960;8.372;2023-06-10T14:11:22;36.50;47.50
20288;DHT22;10303;51.960;8.372;2023-06-10T14:13:48;36.40;47.70
20288;DHT22;10303;51.960;8.372;2023-06-10T14:16:14;36.30;47.30
20288;DHT22;10303;51.960;8.372;2023-06-10T14:18:40;36.20;47.40
20288;DHT22;10303;51.960;8.372;2023-06-10T14:21:06;36.10;47.30
20288;DHT22;10303;51.960;8.372;2023-06-10T14:23:33;36.00;47.30
20288;DHT22;10303;51.960;8.372;2023-06-10T14:25:59;35.90;47.60
20288;DHT22;10303;51.960;8.372;2023-06-10T14:28:26;35.70;47.50
20288;DHT22;10303;51.960;8.372;2023-06-10T14:30:53;35.60;47.90
20288;DHT22;10303;51.960;8.372;2023-06-10T14:33:19;35.50;48.00
20288;DHT22;10303;51.960;8.372;2023-06-10T14:35:45;35.40;48.20
20288;DHT22;10303;51.960;8.372;2023-06-10T14:38:11;35.30;48.40
20288;DHT22;10303;51.960;8.372;2023-06-10T14:40:36;35.10;48.70
20288;DHT22;10303;51.960;8.372;2023-06-10T14:43:02;35.00;48.80
20288;DHT22;10303;51.960;8.372;2023-06-10T14:45:38;34.90;49.40
20288;DHT22;10303;51.960;8.372;2023-06-10T14:48:07;34.80;48.50
20288;DHT22;10303;51.960;8.372;2023-06-10T14:50:37;34.70;48.40
20288;DHT22;10303;51.960;8.372;2023-06-10T14:53:03;34.60;48.80
20288;DHT22;10303;51.960;8.372;2023-06-10T14:55:29;34.60;49.20
20288;DHT22;10303;51.960;8.372;2023-06-10T14:57:55;34.50;49.50
20288;DHT22;10303;51.960;8.372;2023-06-10T15:00:23;34.40;49.70
20288;DHT22;10303;51.960;8.372;2023-06-10T15:02:51;34.40;49.80
20288;DHT22;10303;51.960;8.372;2023-06-10T15:05:17;34.30;49.80
20288;DHT22;10303;51.960;8.372;2023-06-10T15:07:47;34.20;49.80
20288;DHT22;10303;51.960;8.372;2023-06-10T15:10:15;34.20;49.90
20288;DHT22;10303;51.960;8.372;2023-06-10T15:12:41;34.10;50.00
20288;DHT22;10303;51.960;8.372;2023-06-10T15:15:07;34.00;50.20
20288;DHT22;10303;51.960;8.372;2023-06-10T15:17:33;34.00;50.30
20288;DHT22;10303;51.960;8.372;2023-06-10T15:19:59;33.90;50.50
20288;DHT22;10303;51.960;8.372;2023-06-10T15:22:27;33.80;50.60
20288;DHT22;10303;51.960;8.372;2023-06-10T15:24:53;33.70;50.50
20288;DHT22;10303;51.960;8.372;2023-06-10T15:27:20;33.70;50.80
20288;DHT22;10303;51.960;8.372;2023-06-10T15:29:46;33.60;51.00
20288;DHT22;10303;51.960;8.372;2023-06-10T15:32:12;33.50;51.50
20288;DHT22;10303;51.960;8.372;2023-06-10T15:34:40;33.50;51.70
20288;DHT22;10303;51.960;8.372;2023-06-10T15:37:05;33.50;51.80
20288;DHT22;10303;51.960;8.372;2023-06-10T15:39:31;33.50;52.00
20288;DHT22;10303;51.960;8.372;2023-06-10T15:41:57;33.40;52.00
20288;DHT22;10303;51.960;8.372;2023-06-10T15:44:23;33.40;52.90
20288;DHT22;10303;51.960;8.372;2023-06-10T15:46:49;33.30;52.20
20288;DHT22;10303;51.960;8.372;2023-06-10T15:49:18;33.30;52.00
20288;DHT22;10303;51.960;8.372;2023-06-10T15:51:44;33.20;52.10
20288;DHT22;10303;51.960;8.372;2023-06-10T15:54:10;33.20;52.20
20288;DHT22;10303;51.960;8.372;2023-06-10T15:56:36;33.10;52.30
20288;DHT22;10303;51.960;8.372;2023-06-10T15:59:02;33.10;52.40
20288;DHT22;10303;51.960;8.372;2023-06-10T16:01:28;33.10;52.60
20288;DHT22;10303;51.960;8.372;2023-06-10T16:03:53;33.10;52.60
20288;DHT22;10303;51.960;8.372;2023-06-10T16:06:22;33.00;52.40